createdAt,value
2022-10-11T00:01:07.528Z,10.93
2022-10-11T00:05:09.793Z,9.00
2022-10-11T00:09:16.021Z,7.88
2022-10-11T00:13:17.607Z,8.55
2022-10-11T00:17:19.486Z,7.75
2022-10-11T00:21:21.807Z,8.25
2022-10-11T00:25:23.524Z,7.90
2022-10-11T00:29:25.412Z,6.65
2022-10-11T00:33:27.022Z,7.25
2022-10-11T00:37:28.600Z,7.75
2022-10-11T00:41:30.392Z,11.55
2022-10-11T00:45:31.926Z,7.00
2022-10-11T00:49:43.816Z,8.02
2022-10-11T00:53:48.900Z,7.85
2022-10-11T00:57:53.505Z,8.52
2022-10-11T01:01:55.551Z,9.48
2022-10-11T01:05:57.280Z,6.38
2022-10-11T01:09:59.249Z,6.88
2022-10-11T01:14:24.833Z,8.93
2022-10-11T01:18:52.926Z,7.10
2022-10-11T01:23:23.764Z,6.10
2022-10-11T01:27:34.898Z,6.55
2022-10-11T01:31:49.214Z,4.35
2022-10-11T01:36:32.353Z,5.43
2022-10-11T01:40:39.154Z,6.93
2022-10-11T01:44:44.699Z,7.13
2022-10-11T01:48:48.619Z,8.20
2022-10-11T01:52:51.096Z,6.57
2022-10-11T01:57:11.444Z,4.65
2022-10-11T02:01:50.482Z,5.10
2022-10-11T02:06:01.936Z,7.28
2022-10-11T02:10:21.478Z,8.43
2022-10-11T02:14:26.348Z,8.02
2022-10-11T02:18:34.195Z,5.13
2022-10-11T02:22:38.827Z,5.50
2022-10-11T02:26:44.110Z,6.63
2022-10-11T02:30:48.164Z,5.40
2022-10-11T02:34:55.189Z,4.32
2022-10-11T02:39:05.456Z,7.70
2022-10-11T02:43:32.867Z,7.03
2022-10-11T02:47:35.000Z,5.53
2022-10-11T02:51:36.673Z,6.82
2022-10-11T02:55:38.331Z,4.75
2022-10-11T02:59:39.913Z,6.32
2022-10-11T03:03:41.956Z,7.93
2022-10-11T03:07:43.706Z,4.68
2022-10-11T03:11:45.443Z,4.13
2022-10-11T03:16:02.221Z,4.70
2022-10-11T03:20:06.437Z,5.15
2022-10-11T03:24:08.237Z,4.72
2022-10-11T03:28:09.841Z,6.03
2022-10-11T03:32:11.528Z,5.07
2022-10-11T03:36:13.351Z,5.85
2022-10-11T03:40:15.067Z,3.97
2022-10-11T03:44:16.832Z,5.75
2022-10-11T03:48:18.438Z,3.85
2022-10-11T03:52:20.178Z,3.58
2022-10-11T03:56:21.786Z,4.20
2022-10-11T04:00:23.515Z,6.07
2022-10-11T04:04:25.209Z,4.50
2022-10-11T04:08:26.837Z,5.22
2022-10-11T04:12:28.473Z,8.70
2022-10-11T04:16:30.122Z,4.22
2022-10-11T04:20:31.770Z,7.43
2022-10-11T04:24:33.923Z,4.18
2022-10-11T04:28:36.289Z,3.70
2022-10-11T04:32:38.018Z,3.35
2022-10-11T04:36:39.688Z,5.00
2022-10-11T04:40:41.377Z,3.85
2022-10-11T04:44:42.974Z,3.20
2022-10-11T04:48:44.735Z,5.95
2022-10-11T04:52:46.368Z,4.45
2022-10-11T04:56:47.970Z,5.15
2022-10-11T05:05:34.634Z,4.03
2022-10-11T05:09:36.210Z,6.53
2022-10-11T05:13:37.900Z,4.93
2022-10-11T05:17:39.593Z,3.55
2022-10-11T05:21:41.603Z,2.78
2022-10-11T05:25:43.666Z,2.97
2022-10-11T05:29:45.713Z,4.40
2022-10-11T05:33:47.723Z,2.78
2022-10-11T05:37:49.493Z,3.05
2022-10-11T05:41:51.940Z,3.33
2022-10-11T05:45:53.530Z,3.33
2022-10-11T05:49:55.184Z,2.95
2022-10-11T05:53:56.820Z,2.33
2022-10-11T05:57:58.431Z,2.80
2022-10-11T06:02:00.015Z,2.50
2022-10-11T06:06:04.811Z,2.75
2022-10-11T06:14:17.247Z,2.28
2022-10-11T06:18:18.826Z,3.30
2022-10-11T06:22:20.445Z,2.92
2022-10-11T06:26:22.126Z,2.80
2022-10-11T06:30:24.218Z,2.00
2022-10-11T06:34:26.022Z,3.50
2022-10-11T06:38:28.236Z,3.03
2022-10-11T06:42:29.855Z,2.50
2022-10-11T06:46:33.108Z,2.20
2022-10-11T06:50:57.786Z,4.85
2022-10-11T06:54:56.454Z,3.28
2022-10-11T06:58:59.556Z,3.22
2022-10-11T07:03:01.198Z,2.33
2022-10-11T07:07:02.812Z,4.35
2022-10-11T07:11:10.857Z,4.65
2022-10-11T07:15:12.937Z,3.08
2022-10-11T07:19:14.649Z,3.50
2022-10-11T07:23:16.346Z,2.65
2022-10-11T07:27:17.901Z,3.70
2022-10-11T07:31:22.499Z,4.15
2022-10-11T07:35:24.159Z,6.05
2022-10-11T07:39:25.903Z,2.40
2022-10-11T07:43:27.497Z,2.53
2022-10-11T07:47:29.164Z,3.75
2022-10-11T07:51:30.757Z,4.80
2022-10-11T07:55:40.065Z,4.05
2022-10-11T07:59:46.656Z,5.60
2022-10-11T08:03:51.367Z,2.58
2022-10-11T08:07:53.003Z,2.45
2022-10-11T08:11:54.675Z,4.20
2022-10-11T08:15:56.855Z,2.67
2022-10-11T08:19:58.780Z,4.78
2022-10-11T08:24:02.862Z,3.38
2022-10-11T08:28:04.703Z,3.20
2022-10-11T08:32:06.795Z,6.20
2022-10-11T08:36:10.361Z,7.93
2022-10-11T08:40:16.582Z,4.63
2022-10-11T08:45:05.435Z,10.07
2022-10-11T08:49:01.675Z,3.15
2022-10-11T08:53:11.613Z,3.85
2022-10-11T08:57:19.405Z,4.13
2022-10-11T09:01:24.750Z,2.15
2022-10-11T09:05:36.330Z,3.10
2022-10-11T09:09:52.106Z,3.90
2022-10-11T09:14:12.100Z,2.80
2022-10-11T09:18:32.202Z,3.72
2022-10-11T09:23:00.586Z,3.15
2022-10-11T09:27:57.758Z,2.10
2022-10-11T09:31:58.499Z,3.97
2022-10-11T09:36:01.880Z,2.17
2022-10-11T09:40:17.554Z,4.95
2022-10-11T09:44:24.606Z,1.73
2022-10-11T09:48:39.114Z,2.35
2022-10-11T09:52:51.473Z,4.03
2022-10-11T09:56:53.789Z,3.30
2022-10-11T10:01:07.871Z,3.95
2022-10-11T10:05:09.981Z,3.38
2022-10-11T10:09:27.516Z,3.13
2022-10-11T10:13:37.981Z,2.30
2022-10-11T10:17:47.922Z,1.98
2022-10-11T10:21:52.658Z,3.22
2022-10-11T10:26:29.827Z,2.00
2022-10-11T10:30:35.391Z,3.47
2022-10-11T10:34:41.417Z,2.22
2022-10-11T10:38:54.428Z,2.70
2022-10-11T10:42:56.170Z,3.67
2022-10-11T10:47:15.519Z,2.38
2022-10-11T10:51:39.312Z,1.95
2022-10-11T10:55:45.241Z,1.35
2022-10-11T11:00:01.987Z,1.70
2022-10-11T11:04:32.172Z,1.80
2022-10-11T11:08:54.578Z,1.65
2022-10-11T11:13:12.748Z,1.38
2022-10-11T11:17:23.155Z,2.25
2022-10-11T11:21:58.665Z,2.60
2022-10-11T11:26:16.599Z,2.03
2022-10-11T11:30:25.301Z,1.15
2022-10-11T11:34:33.190Z,2.83
2022-10-11T11:38:58.587Z,3.28
2022-10-11T11:43:06.411Z,2.10
2022-10-11T11:47:20.065Z,4.10
2022-10-11T11:51:38.378Z,1.55
2022-10-11T11:55:54.763Z,2.25
2022-10-11T12:00:01.200Z,2.10
2022-10-11T12:04:21.900Z,1.63
2022-10-11T12:08:30.549Z,1.88
2022-10-11T12:12:37.318Z,1.92
2022-10-11T12:17:04.986Z,2.88
2022-10-11T12:21:26.987Z,1.83
2022-10-11T12:25:28.680Z,2.58
2022-10-11T12:29:49.389Z,1.80
2022-10-11T12:34:02.600Z,2.20
2022-10-11T12:38:14.972Z,1.88
2022-10-11T12:42:24.278Z,0.80
2022-10-11T12:46:29.081Z,1.40
2022-10-11T12:50:44.804Z,1.48
2022-10-11T12:55:17.693Z,1.77
2022-10-11T12:59:22.962Z,2.30
2022-10-11T13:04:03.084Z,1.50
2022-10-11T13:08:09.304Z,6.10
2022-10-11T13:12:21.245Z,1.73
2022-10-11T13:16:43.790Z,2.22
2022-10-11T13:20:45.469Z,4.47
2022-10-11T13:24:47.491Z,1.88
2022-10-11T13:28:49.170Z,1.60
2022-10-11T13:32:52.512Z,3.40
2022-10-11T13:36:58.531Z,1.25
2022-10-11T13:45:05.325Z,4.13
2022-10-11T13:49:29.238Z,1.17
2022-10-11T13:53:31.055Z,1.02
2022-10-11T13:57:48.153Z,0.90
2022-10-11T14:01:55.154Z,2.03
2022-10-11T14:05:59.365Z,2.97
2022-10-11T14:10:01.408Z,2.28
2022-10-11T14:14:47.907Z,1.23
2022-10-11T14:18:58.552Z,1.77
2022-10-11T14:23:00.284Z,1.25
2022-10-11T14:27:05.707Z,1.25
2022-10-11T14:31:08.508Z,1.20
2022-10-11T14:35:19.352Z,1.55
2022-10-11T14:39:23.913Z,1.50
2022-10-11T14:43:25.593Z,1.30
2022-10-11T14:47:27.180Z,2.42
2022-10-11T14:51:34.323Z,1.23
2022-10-11T14:55:37.587Z,0.77
2022-10-11T14:59:39.634Z,0.63
2022-10-11T15:03:41.567Z,1.73
2022-10-11T15:07:43.296Z,0.60
2022-10-11T15:11:45.039Z,1.65
2022-10-11T15:15:46.646Z,1.10
2022-10-11T15:19:48.358Z,0.68
2022-10-11T15:23:51.471Z,1.92
2022-10-11T15:27:53.295Z,0.68
2022-10-11T15:31:54.891Z,0.70
2022-10-11T15:35:56.506Z,2.10
2022-10-11T15:39:58.126Z,0.98
2022-10-11T15:43:59.822Z,1.98
2022-10-11T15:48:01.949Z,0.63
2022-10-11T15:52:03.567Z,0.65
2022-10-11T15:56:08.603Z,1.52
2022-10-11T16:00:11.137Z,0.88
2022-10-11T16:04:12.774Z,1.20
2022-10-11T16:08:14.854Z,0.60
2022-10-11T16:12:16.439Z,1.15
2022-10-11T16:16:18.077Z,2.58
2022-10-11T16:20:22.305Z,0.50
2022-10-11T16:24:23.952Z,1.05
2022-10-11T16:28:26.096Z,1.08
2022-10-11T16:32:28.033Z,0.85
2022-10-11T16:36:32.439Z,3.38
2022-10-11T16:40:35.910Z,1.10
2022-10-11T16:44:39.250Z,0.93
2022-10-11T16:48:40.871Z,2.38
2022-10-11T16:52:42.499Z,2.58
2022-10-11T16:56:44.453Z,2.40
2022-10-11T17:00:46.118Z,1.00
2022-10-11T17:04:50.563Z,0.77
2022-10-11T17:08:52.825Z,1.70
2022-10-11T17:12:55.105Z,2.20
2022-10-11T17:16:56.722Z,1.85
2022-10-11T17:21:11.274Z,1.95
2022-10-11T17:25:12.880Z,1.63
2022-10-11T17:29:16.270Z,1.30
2022-10-11T17:33:17.967Z,3.10
2022-10-11T17:37:19.854Z,1.98
2022-10-11T17:41:21.507Z,3.17
2022-10-11T17:45:23.150Z,0.90
2022-10-11T17:49:24.754Z,1.98
2022-10-11T17:53:26.431Z,0.73
2022-10-11T17:57:28.064Z,1.67
2022-10-11T18:01:29.901Z,2.05
2022-10-11T18:05:35.904Z,1.05
2022-10-11T18:14:00.136Z,3.17
2022-10-11T18:18:04.490Z,3.67
2022-10-11T18:22:07.327Z,2.10
2022-10-11T18:26:17.894Z,3.03
2022-10-11T18:30:19.673Z,2.15
2022-10-11T18:34:21.343Z,4.05
2022-10-11T18:38:22.945Z,1.40
2022-10-11T18:42:24.508Z,3.25
2022-10-11T18:46:27.018Z,3.15
2022-10-11T18:50:28.657Z,3.35
2022-10-11T18:54:30.380Z,2.88
2022-10-11T18:58:33.531Z,1.88
2022-10-11T19:02:35.119Z,2.63
2022-10-11T19:06:43.130Z,2.60
2022-10-11T19:10:44.790Z,3.38
2022-10-11T19:14:47.988Z,1.50
2022-10-11T19:18:50.606Z,5.25
2022-10-11T19:22:52.210Z,2.75
2022-10-11T19:26:59.756Z,4.18
2022-10-11T19:31:09.694Z,3.20
2022-10-11T19:35:12.790Z,3.88
2022-10-11T19:39:18.257Z,3.10
2022-10-11T19:43:19.878Z,4.72
2022-10-11T19:47:21.696Z,3.85
2022-10-11T19:51:25.977Z,3.28
2022-10-11T19:55:31.332Z,3.72
2022-10-11T19:59:32.993Z,2.65
2022-10-11T20:03:34.765Z,3.70
2022-10-11T20:07:36.358Z,2.53
2022-10-11T20:11:38.135Z,3.00
2022-10-11T20:15:39.759Z,3.63
2022-10-11T20:19:41.352Z,3.85
2022-10-11T20:23:44.623Z,5.72
2022-10-11T20:27:46.945Z,2.80
2022-10-11T20:31:48.627Z,3.75
2022-10-11T20:36:06.790Z,3.05
2022-10-11T20:44:37.758Z,5.22
2022-10-11T20:48:43.453Z,6.95
2022-10-11T20:52:45.068Z,2.00
2022-10-11T20:56:46.648Z,5.85
2022-10-11T21:00:48.472Z,3.05
2022-10-11T21:04:51.306Z,4.57
2022-10-11T21:08:55.639Z,3.28
2022-10-11T21:12:57.235Z,3.35
2022-10-11T21:16:59.024Z,2.83
2022-10-11T21:21:02.077Z,3.90
2022-10-11T21:25:04.231Z,1.98
2022-10-11T21:29:06.235Z,2.92
2022-10-11T21:33:08.077Z,2.15
2022-10-11T21:37:09.686Z,3.88
2022-10-11T21:41:23.052Z,4.43
2022-10-11T21:49:34.267Z,2.25
2022-10-11T21:53:36.048Z,2.80
2022-10-11T21:57:37.642Z,4.88
2022-10-11T22:01:40.121Z,3.78
2022-10-11T22:05:46.255Z,3.60
2022-10-11T22:13:49.592Z,3.10
2022-10-11T22:17:51.809Z,4.03
2022-10-11T22:21:53.570Z,2.63
2022-10-11T22:25:55.274Z,3.03
2022-10-11T22:30:16.662Z,2.40
2022-10-11T22:34:18.372Z,2.47
2022-10-11T22:38:20.167Z,3.00
2022-10-11T22:42:25.478Z,3.05
2022-10-11T22:46:29.308Z,2.85
2022-10-11T22:50:30.880Z,3.08
2022-10-11T22:54:32.524Z,3.58
2022-10-11T22:58:34.338Z,2.67
2022-10-11T23:02:35.912Z,4.43
2022-10-11T23:06:37.601Z,3.92
2022-10-11T23:10:40.349Z,2.60
2022-10-11T23:14:42.140Z,2.67
2022-10-11T23:18:43.851Z,3.08
2022-10-11T23:22:45.442Z,3.55
2022-10-11T23:26:47.010Z,2.20
2022-10-11T23:30:48.618Z,3.22
2022-10-11T23:34:51.441Z,2.88
2022-10-11T23:38:55.858Z,3.83
2022-10-11T23:42:57.464Z,3.00
2022-10-11T23:46:59.061Z,4.15
2022-10-11T23:51:08.346Z,2.95
2022-10-11T23:55:09.981Z,3.40
2022-10-11T23:59:11.569Z,3.42
